Time;durP1;ratioP1;P1;durP2;ratioP2;P2;SDS_P1;SDS_P2;PMS_P1;PMS_P2;Temp;Humidity;BMP_temperature;BMP_pressure;BME280_temperature;BME280_humidity;BME280_pressure;Samples;Min_cycle;Max_cycle;Signal;HPM_P1;HPM_P2
2022/05/03 00:00:46;;;;;;;;;;;10.40;99.90;;;;;;5048973;28;20028;-89
2022/05/03 00:03:34;;;;;;;13.07;9.32;;;10.50;99.90;;;;;;5065416;28;19916;-88
2022/05/03 00:06:23;;;;;;;15.82;9.50;;;10.40;99.90;;;;;;5053536;28;20060;-89
2022/05/03 00:08:53;;;;;;;17.60;8.93;;;10.40;99.90;;;;;;5053421;28;20047;-88
2022/05/03 00:11:45;;;;;;;14.20;8.85;;;10.40;99.90;;;;;;5051965;28;20052;-88
2022/05/03 00:14:37;;;;;;;16.35;8.68;;;10.40;99.90;;;;;;5051840;28;20032;-89
2022/05/03 00:17:04;;;;;;;14.00;9.32;;;10.50;99.90;;;;;;5052114;28;20017;-89
2022/05/03 00:19:30;;;;;;;17.15;9.25;;;10.60;99.90;;;;;;5056661;28;20028;-90
2022/05/03 00:21:57;;;;;;;13.75;9.32;;;10.50;99.90;;;;;;5078379;28;20062;-88
2022/05/03 00:24:23;;;;;;;15.48;9.43;;;10.50;99.90;;;;;;5076628;28;20017;-90
2022/05/03 00:26:49;;;;;;;14.98;8.68;;;10.50;99.90;;;;;;5070695;28;20319;-90
2022/05/03 00:29:16;;;;;;;16.35;9.75;;;10.60;99.90;;;;;;5055187;28;20033;-88
2022/05/03 00:31:43;;;;;;;15.55;9.38;;;10.50;99.90;;;;;;5052058;28;20374;-89
2022/05/03 00:34:10;;;;;;;14.23;8.65;;;10.40;99.90;;;;;;5053782;28;20457;-88
2022/05/03 00:36:36;;;;;;;16.57;9.07;;;10.50;99.90;;;;;;5053262;28;20100;-89
2022/05/03 00:39:02;;;;;;;16.73;8.98;;;10.50;99.90;;;;;;5053011;28;20049;-89
2022/05/03 00:41:43;;;;;;;14.20;9.48;;;10.40;99.90;;;;;;5052422;28;20028;-89
2022/05/03 00:47:20;;;;;;;13.55;9.23;;;10.30;99.90;;;;;;5036006;28;20110;-88
2022/05/03 00:50:15;;;;;;;15.02;9.35;;;10.30;99.90;;;;;;5051510;28;20029;-91
2022/05/03 00:52:47;;;;;;;14.30;8.77;;;10.40;99.90;;;;;;5068278;28;20500;-90
2022/05/03 00:55:46;;;;;;;14.95;8.82;;;10.40;99.90;;;;;;5051190;28;20036;-89
2022/05/03 00:58:48;;;;;;;20.70;9.38;;;10.40;99.90;;;;;;5052664;28;20099;-88
2022/05/03 01:01:38;;;;;;;16.80;9.13;;;10.30;99.90;;;;;;5048456;28;20040;-90
2022/05/03 01:04:13;;;;;;;18.05;9.40;;;10.40;99.90;;;;;;5031752;28;20022;-90
2022/05/03 01:06:59;;;;;;;19.73;9.52;;;10.50;99.90;;;;;;5046395;28;20390;-89
2022/05/03 01:09:56;;;;;;;15.77;10.10;;;10.20;99.90;;;;;;5050381;28;20116;-91
2022/05/03 01:12:34;;;;;;;16.70;9.93;;;10.10;99.90;;;;;;5046919;28;20124;-90
2022/05/03 01:15:00;;;;;;;19.90;10.75;;;10.20;99.90;;;;;;5052230;28;20035;-90
2022/05/03 01:17:44;;;;;;;17.00;9.65;;;10.20;99.90;;;;;;5034784;28;20037;-91
2022/05/03 01:20:14;;;;;;;18.05;9.32;;;10.30;99.90;;;;;;5051675;28;20039;-91
2022/05/03 01:22:51;;;;;;;22.27;10.45;;;10.20;99.90;;;;;;5050679;28;20021;-92
2022/05/03 01:25:38;;;;;;;21.93;10.70;;;10.20;99.90;;;;;;5050971;28;20028;-91
2022/05/03 01:28:29;;;;;;;16.42;9.80;;;10.30;99.90;;;;;;5051041;28;20063;-89
2022/05/03 01:30:58;;;;;;;15.50;10.43;;;10.30;99.90;;;;;;5051969;28;20040;-90
2022/05/03 01:33:33;;;;;;;;;;;10.40;99.90;;;;;;5052403;28;20036;-90
2022/05/03 01:36:00;;;;;;;21.23;11.48;;;10.50;99.90;;;;;;5052241;28;19904;-90
2022/05/03 01:38:51;;;;;;;19.43;10.87;;;10.60;99.90;;;;;;5050531;28;20465;-91
2022/05/03 01:41:42;;;;;;;14.82;10.60;;;10.60;99.90;;;;;;5050771;28;20291;-90
2022/05/03 01:44:25;;;;;;;18.08;10.65;;;10.60;99.90;;;;;;5050565;28;20401;-90
2022/05/03 01:46:59;;;;;;;17.92;10.60;;;10.50;99.90;;;;;;5067458;28;20083;-90
2022/05/03 01:52:43;;;;;;;18.20;11.20;;;10.50;99.90;;;;;;5051980;28;20087;-90
2022/05/03 01:55:36;;;;;;;17.63;11.30;;;10.60;99.90;;;;;;5050309;28;20029;-91
2022/05/03 01:58:18;;;;;;;19.15;10.95;;;10.60;99.90;;;;;;5050866;28;20112;-92
2022/05/03 02:00:58;;;;;;;20.88;11.05;;;10.60;99.90;;;;;;5050295;28;20416;-91
2022/05/03 02:03:32;;;;;;;15.57;10.82;;;10.50;99.90;;;;;;5050446;28;20216;-90
2022/05/03 02:06:03;;;;;;;22.80;12.18;;;10.60;99.90;;;;;;5050438;28;20032;-89
2022/05/03 02:09:05;;;;;;;18.92;10.82;;;10.60;99.90;;;;;;5051725;28;20481;-89
2022/05/03 02:11:40;;;;;;;20.17;11.13;;;10.70;99.90;;;;;;5063875;28;20590;-90
2022/05/03 02:17:46;;;;;;;18.25;10.68;;;10.60;99.90;;;;;;5051390;28;20043;-89
2022/05/03 02:20:54;;;;;;;24.75;12.02;;;10.60;99.90;;;;;;5049114;28;20032;-90
2022/05/03 02:23:38;;;;;;;26.42;12.75;;;10.50;99.90;;;;;;5059917;28;20526;-91
2022/05/03 02:26:37;;;;;;;19.20;11.65;;;10.40;99.90;;;;;;5050993;28;20025;-90
2022/05/03 02:29:22;;;;;;;23.13;13.10;;;10.50;99.90;;;;;;5051739;28;20029;-90
2022/05/03 02:32:05;;;;;;;21.15;12.25;;;10.50;99.90;;;;;;5049508;28;20119;-90
2022/05/03 02:34:47;;;;;;;19.30;12.38;;;10.50;99.90;;;;;;5051419;28;20423;-91
2022/05/03 02:37:21;;;;;;;21.75;12.32;;;10.60;99.90;;;;;;5049856;28;20506;-91
2022/05/03 02:39:58;;;;;;;20.25;12.10;;;10.60;99.90;;;;;;5049460;28;20029;-89
2022/05/03 02:42:25;;;;;;;20.42;11.93;;;10.50;99.90;;;;;;5049543;28;20021;-90
2022/05/03 02:44:56;;;;;;;23.25;11.85;;;10.50;99.90;;;;;;5049473;28;20029;-88
2022/05/03 02:47:30;;;;;;;19.80;11.95;;;10.50;99.90;;;;;;5048443;28;20029;-88
2022/05/03 02:50:08;;;;;;;19.25;11.82;;;10.40;99.90;;;;;;5064489;28;20317;-87
2022/05/03 02:52:58;;;;;;;24.30;13.15;;;10.40;99.90;;;;;;5047972;28;20036;-88
2022/05/03 02:55:36;;;;;;;21.70;12.68;;;10.30;99.90;;;;;;5047839;28;20020;-87
2022/05/03 02:58:08;;;;;;;24.27;11.70;;;10.40;99.90;;;;;;5049909;28;20029;-88
2022/05/03 03:04:25;;;;;;;24.73;13.18;;;10.40;99.90;;;;;;5050885;28;20503;-88
2022/05/03 03:06:55;;;;;;;22.55;13.07;;;10.30;99.90;;;;;;5044894;28;20033;-88
2022/05/03 03:09:26;;;;;;;25.73;13.65;;;10.30;99.90;;;;;;5049028;28;20024;-86
2022/05/03 03:12:02;;;;;;;24.73;14.15;;;10.40;99.90;;;;;;5048186;28;20037;-88
2022/05/03 03:18:12;;;;;;;;;;;;;;;;;;;;;
2022/05/03 03:25:06;;;;;;;;;;;;;;;;;;;;;
2022/05/03 03:28:12;;;;;;;;;;;;;;;;;;;;;
2022/05/03 03:30:48;;;;;;;25.13;14.30;;;10.30;99.90;;;;;;4970914;28;20061;-91
2022/05/03 03:33:17;;;;;;;23.05;14.52;;;10.30;99.90;;;;;;5046989;28;20078;-91
2022/05/03 03:36:45;;;;;;;26.27;15.10;;;10.30;99.90;;;;;;5050136;28;20025;-93
2022/05/03 03:42:21;;;;;;;28.20;14.95;;;10.40;99.90;;;;;;4951861;28;20058;-90
2022/05/03 03:44:47;;;;;;;29.33;15.32;;;;;;;;;;5032834;28;20064;-90
2022/05/03 03:47:15;;;;;;;23.48;14.27;;;10.30;99.90;;;;;;5050310;28;20096;-91
2022/05/03 03:49:41;;;;;;;27.25;15.00;;;;;;;;;;5050102;28;20075;-91
2022/05/03 03:52:08;;;;;;;24.08;15.43;;;10.30;99.90;;;;;;5054874;28;20051;-90
2022/05/03 03:54:35;;;;;;;27.02;14.90;;;10.20;99.90;;;;;;5055218;28;20053;-89
2022/05/03 03:57:01;;;;;;;23.85;14.48;;;;;;;;;;5053600;28;20116;-91
2022/05/03 03:59:30;;;;;;;26.75;15.07;;;10.20;99.90;;;;;;5053766;28;20481;-89
2022/05/03 04:02:00;;;;;;;25.88;14.23;;;10.20;99.90;;;;;;5049701;28;20171;-88
2022/05/03 04:04:32;;;;;;;29.00;15.90;;;10.20;99.90;;;;;;5051686;28;20100;-90
2022/05/03 04:06:59;;;;;;;26.38;15.65;;;10.10;99.90;;;;;;5053306;28;20527;-89
2022/05/03 04:09:26;;;;;;;32.30;16.23;;;10.10;99.90;;;;;;5066713;28;20102;-89
2022/05/03 04:11:53;;;;;;;28.98;16.23;;;;;;;;;;5050383;28;20049;-91
2022/05/03 04:14:19;;;;;;;28.38;16.52;;;10.10;99.90;;;;;;5049968;28;20021;-90
2022/05/03 04:16:45;;;;;;;26.98;15.85;;;10.10;99.90;;;;;;5047836;28;20432;-91
2022/05/03 04:19:12;;;;;;;32.28;18.05;;;10.10;99.90;;;;;;5049624;28;20048;-90
2022/05/03 04:21:39;;;;;;;37.03;17.05;;;10.10;99.90;;;;;;5050243;28;20083;-88
2022/05/03 04:24:06;;;;;;;30.15;17.23;;;10.10;99.90;;;;;;5041781;28;20025;-87
2022/05/03 04:26:32;;;;;;;30.00;16.95;;;10.10;99.90;;;;;;5049197;28;20021;-89
2022/05/03 04:28:59;;;;;;;29.05;16.42;;;10.00;99.90;;;;;;5048025;28;20037;-89
2022/05/03 04:31:32;;;;;;;31.55;16.48;;;10.00;99.90;;;;;;5048616;28;20123;-89
2022/05/03 04:34:02;;;;;;;32.50;17.13;;;;;;;;;;5056321;28;20039;-89
2022/05/03 04:36:30;;;;;;;29.75;17.17;;;10.00;99.90;;;;;;5055680;28;20075;-89
2022/05/03 04:38:56;;;;;;;28.70;17.63;;;10.10;99.90;;;;;;5060150;28;20021;-89
2022/05/03 04:41:23;;;;;;;33.75;17.40;;;10.00;99.90;;;;;;5057437;28;20439;-90
2022/05/03 04:43:49;;;;;;;32.83;17.45;;;10.00;99.90;;;;;;5052847;28;20035;-90
2022/05/03 04:46:15;;;;;;;30.65;18.48;;;10.10;99.90;;;;;;5056774;28;20013;-90
2022/05/03 04:48:42;;;;;;;36.85;18.15;;;10.10;99.90;;;;;;5048456;28;20171;-91
2022/05/03 04:51:24;;;;;;;33.25;17.50;;;10.10;99.90;;;;;;5052458;28;20037;-91
2022/05/03 04:53:50;;;;;;;37.70;17.83;;;10.10;99.90;;;;;;5064520;28;20083;-88
2022/05/03 04:56:29;;;;;;;36.55;18.48;;;10.10;99.90;;;;;;5063090;28;20076;-92
2022/05/03 04:58:58;;;;;;;32.85;18.55;;;10.10;99.90;;;;;;5067557;28;20104;-90
2022/05/03 05:01:24;;;;;;;33.00;18.00;;;10.10;99.90;;;;;;5063237;28;20108;-91
2022/05/03 05:03:50;;;;;;;32.35;18.38;;;10.10;99.90;;;;;;5054329;28;20053;-92
2022/05/03 05:06:16;;;;;;;34.55;19.45;;;;;;;;;;5052430;28;20512;-91
2022/05/03 05:08:43;;;;;;;34.30;18.63;;;10.10;99.90;;;;;;5059599;28;20036;-87
2022/05/03 05:11:09;;;;;;;34.67;19.45;;;10.10;99.90;;;;;;5058931;28;20504;-86
2022/05/03 05:13:36;;;;;;;33.10;18.80;;;10.20;99.90;;;;;;5064786;28;20029;-86
2022/05/03 05:16:10;;;;;;;36.65;20.08;;;10.30;99.90;;;;;;5065410;28;20036;-85
2022/05/03 05:18:39;;;;;;;37.40;19.38;;;10.30;99.90;;;;;;5062586;28;20028;-85
2022/05/03 05:21:28;;;;;;;37.33;19.00;;;10.30;99.90;;;;;;5066293;28;20112;-84
2022/05/03 05:23:55;;;;;;;33.20;18.58;;;10.30;99.90;;;;;;5025272;28;20116;-84
2022/05/03 05:26:22;;;;;;;32.80;19.00;;;10.40;99.90;;;;;;5019984;28;20540;-85
2022/05/03 05:28:47;;;;;;;36.22;19.98;;;10.40;99.90;;;;;;5025251;28;20037;-85
2022/05/03 05:31:16;;;;;;;33.15;18.73;;;10.40;99.90;;;;;;5010060;28;20041;-85
2022/05/03 05:33:42;;;;;;;40.50;19.80;;;10.40;99.90;;;;;;5021515;28;20021;-85
2022/05/03 05:36:08;;;;;;;31.40;18.55;;;10.40;99.90;;;;;;5036450;28;20110;-86
2022/05/03 05:38:35;;;;;;;40.50;20.35;;;10.50;99.90;;;;;;5033477;28;20046;-85
2022/05/03 05:41:12;;;;;;;35.42;18.73;;;10.60;99.90;;;;;;5025266;28;20086;-85
2022/05/03 05:43:38;;;;;;;37.33;19.92;;;10.60;99.90;;;;;;5020717;28;20095;-85
2022/05/03 05:46:06;;;;;;;36.17;18.75;;;10.60;99.90;;;;;;5021780;28;20038;-85
2022/05/03 05:48:39;;;;;;;39.17;19.70;;;10.60;99.90;;;;;;5024942;28;20026;-85
2022/05/03 05:51:05;;;;;;;34.97;19.15;;;10.50;99.90;;;;;;5023328;28;20669;-85
2022/05/03 05:53:34;;;;;;;36.10;19.50;;;10.60;99.90;;;;;;5023733;28;20537;-85
2022/05/03 05:56:01;;;;;;;38.90;20.25;;;10.60;99.90;;;;;;5066226;28;20036;-85
2022/05/03 05:58:27;;;;;;;40.60;20.77;;;10.70;99.90;;;;;;5064710;28;20049;-85
2022/05/03 06:00:52;;;;;;;35.92;19.73;;;10.80;99.90;;;;;;5066443;28;20024;-85
2022/05/03 06:03:20;;;;;;;38.42;20.77;;;10.80;99.90;;;;;;5082817;28;20063;-84
2022/05/03 06:05:52;;;;;;;35.88;20.45;;;10.80;99.90;;;;;;5063936;28;20028;-84
2022/05/03 06:08:18;;;;;;;32.60;19.17;;;10.80;99.90;;;;;;5060528;28;20041;-84
2022/05/03 06:10:44;;;;;;;39.75;20.40;;;10.90;99.90;;;;;;5062188;28;20043;-84
2022/05/03 06:13:10;;;;;;;36.45;20.15;;;10.80;99.90;;;;;;5059839;28;20465;-84
2022/05/03 06:15:37;;;;;;;32.85;18.85;;;10.90;99.90;;;;;;5058343;28;20232;-85
2022/05/03 06:18:04;;;;;;;41.50;20.63;;;10.80;99.90;;;;;;5065627;28;20028;-84
2022/05/03 06:20:30;;;;;;;37.20;20.92;;;11.00;99.90;;;;;;5065648;28;20100;-84
2022/05/03 06:22:55;;;;;;;37.25;19.42;;;11.10;99.90;;;;;;5063705;28;20036;-84
2022/05/03 06:25:23;;;;;;;38.63;19.83;;;11.00;99.90;;;;;;5056206;28;20092;-84
2022/05/03 06:27:49;;;;;;;35.22;18.85;;;10.90;99.90;;;;;;5057719;28;20044;-84
2022/05/03 06:30:15;;;;;;;38.65;20.92;;;10.90;99.90;;;;;;5062616;28;20033;-84
2022/05/03 06:32:43;;;;;;;35.90;19.30;;;11.00;99.90;;;;;;5058603;28;20027;-84
2022/05/03 06:35:11;;;;;;;;;;;11.00;99.90;;;;;;5057599;28;20362;-84
2022/05/03 06:37:40;;;;;;;34.25;18.92;;;11.00;99.90;;;;;;5057914;28;19904;-85
2022/05/03 06:40:11;;;;;;;41.60;20.10;;;10.90;99.90;;;;;;5059591;28;20029;-84
2022/05/03 06:42:38;;;;;;;40.63;21.35;;;10.90;99.90;;;;;;5055783;28;20017;-84
2022/05/03 06:45:10;;;;;;;40.17;20.15;;;10.90;99.90;;;;;;5055725;28;20469;-85
2022/05/03 06:47:39;;;;;;;41.10;20.48;;;11.00;99.90;;;;;;5059930;28;20021;-85
2022/05/03 06:50:05;;;;;;;44.45;21.30;;;11.10;99.90;;;;;;5061761;28;20377;-84
2022/05/03 06:52:41;;;;;;;42.20;20.17;;;11.20;99.90;;;;;;5062602;28;20433;-84
2022/05/03 06:55:13;;;;;;;39.30;20.40;;;11.20;99.90;;;;;;5060484;28;20028;-84
2022/05/03 06:57:39;;;;;;;43.20;20.40;;;11.20;99.90;;;;;;5059380;28;20231;-85
2022/05/03 07:00:08;;;;;;;41.30;21.13;;;11.10;99.90;;;;;;5056219;28;20040;-84
2022/05/03 07:02:34;;;;;;;38.17;20.85;;;11.20;99.90;;;;;;5056729;28;20017;-84
2022/05/03 07:05:00;;;;;;;42.42;20.77;;;11.20;99.90;;;;;;5055959;28;20040;-84
2022/05/03 07:07:27;;;;;;;36.47;19.92;;;11.20;99.90;;;;;;5052831;28;20027;-84
2022/05/03 07:09:53;;;;;;;39.08;20.25;;;11.20;99.90;;;;;;5053947;28;20404;-85
2022/05/03 07:12:19;;;;;;;45.78;21.42;;;11.20;99.90;;;;;;5053345;28;20040;-84
2022/05/03 07:14:44;;;;;;;39.60;20.65;;;11.30;99.90;;;;;;5053909;28;20076;-85
2022/05/03 07:22:45;;;;;;;39.33;22.20;;;11.30;99.90;;;;;;5053969;28;20037;-86
2022/05/03 07:22:50;;;;;;;42.30;21.95;;;11.40;99.90;;;;;;5053644;28;20102;-85
2022/05/03 07:25:18;;;;;;;44.92;23.13;;;11.40;99.90;;;;;;5052903;28;20024;-85
2022/05/03 07:27:48;;;;;;;47.42;23.02;;;11.50;99.90;;;;;;5050051;28;20045;-84
2022/05/03 07:30:14;;;;;;;46.53;22.92;;;11.50;99.90;;;;;;5051275;28;20029;-85
2022/05/03 07:32:41;;;;;;;40.88;21.42;;;11.60;99.90;;;;;;5053522;28;20139;-84
2022/05/03 07:35:09;;;;;;;41.65;22.67;;;11.60;99.90;;;;;;5053531;28;20465;-84
2022/05/03 07:37:36;;;;;;;44.42;20.77;;;11.60;99.90;;;;;;5052530;28;20033;-84
2022/05/03 07:40:02;;;;;;;50.38;23.90;;;11.60;99.90;;;;;;5051599;28;20120;-83
2022/05/03 07:42:28;;;;;;;43.22;22.33;;;11.60;99.90;;;;;;5051880;28;20029;-88
2022/05/03 07:44:54;;;;;;;41.38;22.33;;;11.60;99.90;;;;;;5065790;28;20068;-86
2022/05/03 07:47:23;;;;;;;42.58;22.10;;;11.60;99.90;;;;;;5050342;28;20028;-86
2022/05/03 07:49:49;;;;;;;42.30;22.30;;;11.80;99.90;;;;;;5047062;28;20040;-86
2022/05/03 07:52:15;;;;;;;45.63;23.08;;;11.80;99.90;;;;;;5048679;28;20512;-85
2022/05/03 07:54:44;;;;;;;41.75;22.60;;;11.70;99.90;;;;;;5048351;28;20013;-86
2022/05/03 07:57:11;;;;;;;42.80;23.15;;;11.80;99.90;;;;;;5049784;28;20025;-90
2022/05/03 07:59:37;;;;;;;46.28;23.83;;;11.80;99.90;;;;;;5049518;28;20060;-85
2022/05/03 08:02:03;;;;;;;43.50;23.02;;;11.90;99.90;;;;;;5046243;28;20049;-86
2022/05/03 08:04:29;;;;;;;47.47;22.38;;;;;;;;;;5046313;28;20013;-89
2022/05/03 08:06:54;;;;;;;46.00;21.88;;;12.00;99.90;;;;;;5047525;28;20508;-89
2022/05/03 08:09:20;;;;;;;45.58;22.40;;;12.10;99.90;;;;;;5053774;28;20040;-86
2022/05/03 08:11:46;;;;;;;42.53;21.35;;;12.20;99.90;;;;;;5089000;28;20024;-92
2022/05/03 08:14:12;;;;;;;44.53;21.63;;;12.40;99.90;;;;;;5070678;28;20427;-89
2022/05/03 08:16:38;;;;;;;46.10;21.83;;;12.50;99.90;;;;;;5065643;28;20029;-86
2022/05/03 08:19:05;;;;;;;38.17;21.45;;;12.50;99.90;;;;;;5069193;28;20017;-87
2022/05/03 08:21:32;;;;;;;41.83;22.15;;;12.50;99.90;;;;;;5049079;28;20021;-86
2022/05/03 08:23:59;;;;;;;39.90;20.93;;;12.50;99.90;;;;;;5049761;28;20025;-86
2022/05/03 08:26:25;;;;;;;37.25;21.10;;;12.60;99.90;;;;;;5050796;28;20362;-87
2022/05/03 08:28:51;;;;;;;38.97;21.35;;;12.50;99.90;;;;;;5052975;28;20021;-86
2022/05/03 08:31:16;;;;;;;37.15;20.90;;;12.80;99.90;;;;;;5053978;28;20591;-86
2022/05/03 08:33:44;;;;;;;41.22;20.90;;;12.90;99.90;;;;;;5052455;28;20029;-87
2022/05/03 08:36:10;;;;;;;43.42;21.48;;;12.90;99.90;;;;;;5051650;28;20036;-86
2022/05/03 08:44:04;;;;;;;40.95;19.15;;;13.40;99.90;;;;;;5053836;28;20036;-87
2022/05/03 08:46:32;;;;;;;35.65;19.98;;;13.50;99.90;;;;;;5052918;28;20029;-87
2022/05/03 08:49:02;;;;;;;47.65;19.95;;;13.50;99.90;;;;;;5051079;28;20512;-86
2022/05/03 08:51:29;;;;;;;40.60;19.98;;;13.50;99.90;;;;;;5052769;28;20136;-87
2022/05/03 08:53:56;;;;;;;38.30;18.50;;;13.40;99.90;;;;;;5053134;28;20021;-87
2022/05/03 08:56:22;;;;;;;38.47;19.23;;;13.50;99.90;;;;;;5054645;28;20400;-86
2022/05/03 08:58:48;;;;;;;32.25;17.58;;;13.50;99.90;;;;;;5054067;28;20397;-86
2022/05/03 09:01:15;;;;;;;32.45;17.92;;;13.40;99.90;;;;;;5069856;28;20601;-86
2022/05/03 09:03:41;;;;;;;36.80;18.05;;;13.60;99.90;;;;;;5052531;28;20090;-86
2022/05/03 09:06:07;;;;;;;35.47;18.63;;;13.70;99.90;;;;;;5050702;28;20068;-88
2022/05/03 09:08:34;;;;;;;41.60;18.15;;;13.80;99.90;;;;;;5065752;28;20028;-88
2022/05/03 09:11:00;;;;;;;35.92;16.92;;;;;;;;;;5048339;28;20496;-86
2022/05/03 09:13:28;;;;;;;33.60;17.05;;;14.00;99.90;;;;;;5048598;28;20102;-86
2022/05/03 09:16:09;;;;;;;32.60;16.67;;;14.00;99.90;;;;;;5049878;28;20017;-85
2022/05/03 09:18:37;;;;;;;34.28;16.67;;;14.10;99.90;;;;;;5047811;28;20032;-85
2022/05/03 09:24:01;;;;;;;33.40;15.93;;;14.40;99.90;;;;;;5049392;28;20036;-86
2022/05/03 09:26:29;;;;;;;35.38;17.85;;;14.80;99.90;;;;;;5050563;28;20022;-85
2022/05/03 09:29:01;;;;;;;35.60;16.92;;;14.80;99.90;;;;;;5049944;28;20017;-86
2022/05/03 09:31:36;;;;;;;32.65;17.65;;;14.50;99.90;;;;;;5049661;28;20037;-86
2022/05/03 09:34:25;;;;;;;34.88;15.75;;;14.50;99.90;;;;;;5049765;28;20017;-87
2022/05/03 09:36:58;;;;;;;32.13;16.02;;;14.40;99.90;;;;;;5051401;28;20546;-87
2022/05/03 09:39:29;;;;;;;30.77;16.50;;;14.50;99.90;;;;;;5049744;28;20024;-88
2022/05/03 09:42:09;;;;;;;30.20;15.70;;;14.80;99.90;;;;;;5067936;28;20115;-86
2022/05/03 09:44:58;;;;;;;34.13;16.42;;;14.90;99.90;;;;;;5051289;28;20092;-88
2022/05/03 09:47:24;;;;;;;;;;;15.10;99.90;;;;;;5047657;28;20017;-86
2022/05/03 09:49:50;;;;;;;32.20;15.40;;;15.10;99.90;;;;;;5052262;28;19905;-88
2022/05/03 09:52:29;;;;;;;30.42;15.45;;;15.30;99.90;;;;;;5050824;28;20158;-86
2022/05/03 09:55:03;;;;;;;28.88;15.30;;;15.50;99.90;;;;;;5051200;28;20025;-88
2022/05/03 09:57:31;;;;;;;26.45;14.30;;;15.80;99.90;;;;;;5047261;28;20021;-85
2022/05/03 09:59:58;;;;;;;26.52;13.35;;;15.80;99.90;;;;;;5050588;28;20018;-85
2022/05/03 10:02:25;;;;;;;27.05;14.05;;;15.80;99.00;;;;;;5052620;28;20029;-85
2022/05/03 10:04:58;;;;;;;21.87;14.27;;;15.80;99.10;;;;;;5068820;28;20013;-85
2022/05/03 10:07:25;;;;;;;29.60;14.10;;;15.90;96.80;;;;;;5061943;28;20051;-86
2022/05/03 10:09:51;;;;;;;31.38;14.65;;;16.00;94.90;;;;;;5057827;28;20056;-86
2022/05/03 10:12:20;;;;;;;26.95;14.45;;;16.30;96.90;;;;;;5058307;28;20029;-86
2022/05/03 10:14:48;;;;;;;26.83;14.38;;;16.00;96.00;;;;;;5056778;28;20021;-86
2022/05/03 10:22:47;;;;;;;29.83;13.38;;;16.40;97.10;;;;;;5052907;28;20543;-89
2022/05/03 10:25:12;;;;;;;27.55;14.48;;;16.90;93.70;;;;;;5050456;28;20429;-86
2022/05/03 10:27:55;;;;;;;22.73;12.82;;;16.50;95.10;;;;;;5054071;28;20029;-84
2022/05/03 10:30:22;;;;;;;24.33;13.68;;;;;;;;;;5053236;28;20029;-86
2022/05/03 10:33:28;;;;;;;26.17;14.02;;;16.30;91.90;;;;;;5051392;28;20377;-88
2022/05/03 10:35:54;;;;;;;23.05;12.10;;;16.80;91.60;;;;;;5051390;28;20017;-89
2022/05/03 10:38:43;;;;;;;27.05;12.88;;;16.70;93.20;;;;;;5038715;28;20021;-87
2022/05/03 10:41:09;;;;;;;22.77;12.43;;;16.60;90.70;;;;;;5043923;28;20025;-89
2022/05/03 10:43:37;;;;;;;21.40;12.25;;;16.90;94.80;;;;;;5049453;28;20092;-87
2022/05/03 10:46:14;;;;;;;24.75;13.30;;;16.60;86.40;;;;;;5048416;28;20460;-87
2022/05/03 10:48:41;;;;;;;24.83;14.10;;;16.70;90.30;;;;;;5062455;28;20457;-87
2022/05/03 10:51:14;;;;;;;31.35;14.60;;;16.50;92.60;;;;;;5073313;28;20033;-88
2022/05/03 10:53:41;;;;;;;26.88;13.40;;;16.40;93.50;;;;;;5073292;28;20017;-87
2022/05/03 10:56:18;;;;;;;21.75;12.40;;;;;;;;;;5054477;28;20029;-86
2022/05/03 10:59:05;;;;;;;33.20;13.52;;;16.80;93.60;;;;;;5045191;28;20052;-87
2022/05/03 11:01:54;;;;;;;23.42;13.10;;;17.20;94.00;;;;;;5051353;28;20025;-87
2022/05/03 11:04:20;;;;;;;34.58;12.82;;;17.20;92.90;;;;;;5050785;28;20025;-87
2022/05/03 11:06:47;;;;;;;23.45;10.85;;;17.30;91.50;;;;;;5047657;28;20021;-87
2022/05/03 11:09:17;;;;;;;25.65;11.95;;;17.10;85.20;;;;;;5064364;28;20880;-87
2022/05/03 11:11:43;;;;;;;22.63;11.90;;;17.00;85.00;;;;;;5031808;28;20041;-88
2022/05/03 11:14:12;;;;;;;25.40;10.65;;;;;;;;;;5050074;28;20114;-88
2022/05/03 11:16:38;;;;;;;26.15;9.30;;;;;;;;;;5049503;28;20063;-87
2022/05/03 11:19:11;;;;;;;19.10;10.13;;;;;;;;;;5050034;28;20091;-88
2022/05/03 11:21:37;;;;;;;22.10;11.10;;;;;;;;;;5051138;28;20017;-87
2022/05/03 11:24:04;;;;;;;22.13;12.95;;;16.70;90.00;;;;;;5050389;28;20029;-87
2022/05/03 11:26:31;;;;;;;21.75;12.20;;;;;;;;;;5049228;28;20382;-87
2022/05/03 11:28:58;;;;;;;19.67;10.93;;;;;;;;;;5050385;28;20029;-88
2022/05/03 11:31:26;;;;;;;17.23;10.00;;;;;;;;;;5051225;28;20115;-87
2022/05/03 11:34:06;;;;;;;20.63;9.10;;;;;;;;;;5050701;28;20036;-87
2022/05/03 11:36:33;;;;;;;17.17;8.48;;;17.50;83.70;;;;;;5051939;28;20259;-86
2022/05/03 11:39:03;;;;;;;17.85;8.40;;;;;;;;;;5051767;28;20052;-86
2022/05/03 11:41:29;;;;;;;16.42;9.40;;;;;;;;;;5058957;28;20043;-88
2022/05/03 11:43:56;;;;;;;24.90;8.68;;;17.60;71.00;;;;;;5061369;28;20040;-91
2022/05/03 11:46:24;;;;;;;16.17;8.30;;;17.60;64.90;;;;;;5059603;28;20029;-86
2022/05/03 11:48:54;;;;;;;14.80;8.45;;;17.60;74.20;;;;;;5071510;28;20053;-88
2022/05/03 11:57:27;;;;;;;12.88;7.72;;;17.10;67.70;;;;;;5061804;28;20044;-87
2022/05/03 11:59:55;;;;;;;10.85;6.30;;;;;;;;;;5061158;28;20029;-89
2022/05/03 12:02:22;;;;;;;11.38;6.43;;;17.10;71.90;;;;;;5056337;28;20025;-87
2022/05/03 12:05:00;;;;;;;11.50;6.47;;;;;;;;;;5058614;28;20124;-87
2022/05/03 12:07:35;;;;;;;10.70;6.35;;;16.60;67.80;;;;;;5062839;28;20025;-86
2022/05/03 12:10:01;;;;;;;11.05;6.43;;;;;;;;;;5055145;28;20100;-87
2022/05/03 12:12:43;;;;;;;10.82;6.15;;;;;;;;;;5055640;28;20036;-87
2022/05/03 12:15:15;;;;;;;10.32;6.53;;;;;;;;;;5053829;28;20032;-87
2022/05/03 12:18:11;;;;;;;11.88;7.07;;;;;;;;;;5065475;28;20056;-87
2022/05/03 12:20:42;;;;;;;11.80;6.80;;;;;;;;;;5042421;28;20067;-87
2022/05/03 12:23:19;;;;;;;11.73;6.80;;;;;;;;;;5053600;28;20399;-87
2022/05/03 12:25:50;;;;;;;14.27;6.60;;;16.90;72.80;;;;;;5056072;28;20049;-86
2022/05/03 12:28:16;;;;;;;8.57;5.65;;;;;;;;;;5055293;28;20358;-86
2022/05/03 12:30:44;;;;;;;10.75;5.75;;;;;;;;;;5056417;28;20029;-88
2022/05/03 12:33:13;;;;;;;10.32;5.53;;;17.60;65.40;;;;;;5055539;28;20112;-87
2022/05/03 12:35:43;;;;;;;9.23;5.00;;;17.50;60.20;;;;;;5054308;28;20036;-86
2022/05/03 12:38:09;;;;;;;14.43;6.13;;;;;;;;;;5054043;28;20182;-86
2022/05/03 12:40:51;;;;;;;15.43;5.22;;;17.60;64.00;;;;;;5054012;28;20519;-87
2022/05/03 12:43:23;;;;;;;10.60;4.85;;;17.20;60.20;;;;;;5055557;28;20454;-89
2022/05/03 12:46:05;;;;;;;9.77;4.80;;;;;;;;;;5053670;28;20662;-87
2022/05/03 12:48:33;;;;;;;10.90;4.65;;;;;;;;;;5049816;28;20021;-87
2022/05/03 12:51:00;;;;;;;8.77;5.65;;;17.30;61.50;;;;;;5056137;28;20029;-87
2022/05/03 12:53:31;;;;;;;15.57;5.70;;;17.50;62.00;;;;;;5053207;28;20037;-86
2022/05/03 12:58:44;;;;;;;11.88;4.75;;;17.40;59.00;;;;;;5038773;28;20032;-86
2022/05/03 13:01:11;;;;;;;7.30;4.65;;;17.30;59.40;;;;;;5045486;28;20021;-87
2022/05/03 13:03:37;;;;;;;6.97;4.03;;;17.40;58.60;;;;;;5051896;28;20025;-85
2022/05/03 13:06:03;;;;;;;11.20;3.63;;;17.40;54.30;;;;;;5056776;28;20025;-87
2022/05/03 13:08:45;;;;;;;6.55;3.22;;;17.40;53.10;;;;;;5075096;28;20040;-90
2022/05/03 13:11:14;;;;;;;5.45;3.05;;;17.40;56.10;;;;;;5040541;28;20120;-86
2022/05/03 13:13:40;;;;;;;8.10;3.78;;;17.40;54.80;;;;;;5056516;28;20029;-86
2022/05/03 13:16:06;;;;;;;3.88;2.67;;;17.40;51.00;;;;;;5050287;28;20099;-86
2022/05/03 13:18:32;;;;;;;5.10;3.00;;;17.70;53.20;;;;;;5052561;28;20025;-88
2022/05/03 13:20:58;;;;;;;6.43;3.03;;;17.50;52.80;;;;;;5068633;28;20041;-87
2022/05/03 13:23:26;;;;;;;8.32;3.25;;;17.80;55.10;;;;;;5054245;28;20032;-86
2022/05/03 13:25:53;;;;;;;8.40;3.65;;;17.80;54.90;;;;;;5054599;28;20025;-88
2022/05/03 13:28:20;;;;;;;4.37;3.20;;;17.90;54.00;;;;;;5055505;28;20033;-86
2022/05/03 13:30:47;;;;;;;8.50;3.72;;;18.10;57.40;;;;;;5057092;28;20279;-87
2022/05/03 13:33:13;;;;;;;5.35;3.30;;;18.00;49.90;;;;;;5053370;28;20040;-85
2022/05/03 13:41:07;;;;;;;9.55;4.47;;;18.20;56.60;;;;;;5052279;28;20078;-86
2022/05/03 13:43:32;;;;;;;8.50;4.80;;;18.50;57.40;;;;;;5052491;28;20021;-86
2022/05/03 13:45:58;;;;;;;8.23;4.03;;;18.50;50.70;;;;;;5052135;28;20025;-86
2022/05/03 13:48:26;;;;;;;6.00;3.97;;;18.30;52.80;;;;;;5053252;28;20032;-85
2022/05/03 13:50:51;;;;;;;18.30;7.00;;;18.20;57.60;;;;;;5050138;28;20043;-86
2022/05/03 13:53:17;;;;;;;14.95;7.72;;;18.20;60.00;;;;;;5051295;28;20021;-88
2022/05/03 13:55:43;;;;;;;17.58;9.95;;;17.90;65.10;;;;;;5049628;28;20428;-87
2022/05/03 13:58:10;;;;;;;22.40;11.00;;;17.60;69.60;;;;;;5052140;28;20466;-89
2022/05/03 14:00:40;;;;;;;24.25;11.32;;;17.70;72.80;;;;;;5054956;28;20525;-88
2022/05/03 14:03:12;;;;;;;23.00;10.60;;;17.50;76.90;;;;;;5051151;28;20028;-90